createdAt,value
2018-08-23T00:00:43.509Z,38.40
2018-08-23T00:03:17.212Z,38.30
2018-08-23T00:05:50.700Z,38.40
2018-08-23T00:08:19.381Z,38.60
2018-08-23T00:10:48.745Z,38.60
2018-08-23T00:13:17.277Z,38.70
2018-08-23T00:15:45.614Z,38.90
2018-08-23T00:18:14.098Z,38.90
2018-08-23T00:20:42.404Z,39.00
2018-08-23T00:23:10.825Z,39.10
2018-08-23T00:25:39.508Z,39.10
2018-08-23T00:28:08.404Z,39.20
2018-08-23T00:30:37.220Z,39.30
2018-08-23T00:33:06.049Z,39.10
2018-08-23T00:35:37.980Z,39.20
2018-08-23T00:38:07.301Z,39.30
2018-08-23T00:40:44.461Z,39.60
2018-08-23T00:43:13.955Z,39.70
2018-08-23T00:45:42.373Z,39.90
2018-08-23T00:48:10.716Z,40.10
2018-08-23T00:50:55.838Z,40.00
2018-08-23T00:53:24.191Z,40.00
2018-08-23T00:56:05.760Z,40.20
2018-08-23T00:58:34.207Z,40.30
2018-08-23T01:01:02.851Z,40.40
2018-08-23T01:03:31.574Z,40.70
2018-08-23T01:06:00.002Z,40.50
2018-08-23T01:08:33.878Z,40.40
2018-08-23T01:11:03.067Z,40.40
2018-08-23T01:13:31.628Z,40.60
2018-08-23T01:15:59.972Z,40.50
2018-08-23T01:18:28.345Z,40.90
2018-08-23T01:20:56.642Z,41.00
2018-08-23T01:23:24.974Z,41.10
2018-08-23T01:25:53.416Z,41.20
2018-08-23T01:28:21.786Z,41.20
2018-08-23T01:30:50.509Z,41.10
2018-08-23T01:33:21.169Z,40.80
2018-08-23T01:35:50.683Z,41.30
2018-08-23T01:38:19.226Z,41.80
2018-08-23T01:40:47.533Z,41.80
2018-08-23T01:43:15.894Z,41.80
2018-08-23T01:45:44.272Z,41.80
2018-08-23T01:48:12.637Z,42.00
2018-08-23T01:50:41.074Z,42.00
2018-08-23T01:53:09.624Z,41.90
2018-08-23T01:55:37.960Z,42.10
2018-08-23T01:58:06.410Z,42.10
2018-08-23T02:00:35.966Z,42.30
2018-08-23T02:03:04.736Z,42.40
2018-08-23T02:05:33.122Z,42.50
2018-08-23T02:08:01.536Z,42.60
2018-08-23T02:10:29.855Z,42.50
2018-08-23T02:12:58.836Z,42.70
2018-08-23T02:15:35.507Z,42.60
2018-08-23T02:18:04.720Z,42.70
2018-08-23T02:20:33.069Z,42.90
2018-08-23T02:23:04.603Z,43.00
2018-08-23T02:25:33.216Z,43.10
2018-08-23T02:28:03.857Z,43.40
2018-08-23T02:30:55.974Z,43.40
2018-08-23T02:33:25.148Z,43.40
2018-08-23T02:36:05.103Z,43.30
2018-08-23T02:38:34.118Z,43.50
2018-08-23T02:41:02.497Z,43.60
2018-08-23T02:43:30.831Z,43.70
2018-08-23T02:46:02.044Z,43.80
2018-08-23T02:48:30.417Z,44.00
2018-08-23T02:50:58.782Z,44.00
2018-08-23T02:53:37.576Z,44.20
2018-08-23T02:56:09.387Z,44.20
2018-08-23T02:58:49.819Z,44.30
2018-08-23T03:01:18.863Z,44.40
2018-08-23T03:04:01.431Z,44.60
2018-08-23T03:07:03.047Z,44.60
2018-08-23T03:09:39.048Z,44.60
2018-08-23T03:12:08.319Z,45.50
2018-08-23T03:14:37.033Z,45.00
2018-08-23T03:17:27.880Z,45.10
2018-08-23T03:20:01.322Z,45.20
2018-08-23T03:22:30.636Z,45.20
2018-08-23T03:25:00.552Z,45.30
2018-08-23T03:27:29.487Z,45.30
2018-08-23T03:29:57.923Z,45.40
2018-08-23T03:32:26.573Z,45.80
2018-08-23T03:34:55.213Z,46.30
2018-08-23T03:37:23.576Z,45.60
2018-08-23T03:39:51.923Z,45.50
2018-08-23T03:42:20.240Z,45.60
2018-08-23T03:44:51.294Z,45.90
2018-08-23T03:47:19.643Z,46.00
2018-08-23T03:49:48.358Z,45.90
2018-08-23T03:52:18.044Z,45.80
2018-08-23T03:54:56.735Z,45.70
2018-08-23T03:57:29.262Z,46.10
2018-08-23T03:59:57.607Z,45.70
2018-08-23T04:02:25.968Z,45.80
2018-08-23T04:05:04.311Z,45.60
2018-08-23T04:07:32.626Z,45.70
2018-08-23T04:10:00.902Z,45.70
2018-08-23T04:12:29.211Z,46.30
2018-08-23T04:15:11.941Z,45.70
2018-08-23T04:17:40.232Z,46.80
2018-08-23T04:20:08.543Z,46.20
2018-08-23T04:22:36.888Z,46.00
2018-08-23T04:25:05.736Z,45.80
2018-08-23T04:27:34.304Z,45.90
2018-08-23T04:30:02.675Z,45.90
2018-08-23T04:32:36.408Z,46.20
2018-08-23T04:35:09.990Z,46.30
2018-08-23T04:37:38.971Z,46.50
2018-08-23T04:40:07.984Z,46.70
2018-08-23T04:42:37.023Z,46.90
2018-08-23T04:45:17.594Z,46.80
2018-08-23T04:47:50.287Z,46.90
2018-08-23T04:50:18.606Z,46.80
2018-08-23T04:52:46.967Z,46.80
2018-08-23T04:55:15.256Z,46.60
2018-08-23T04:57:43.657Z,46.60
2018-08-23T05:00:12.116Z,46.50
2018-08-23T05:02:40.449Z,46.60
2018-08-23T05:05:09.009Z,46.70
2018-08-23T05:07:37.603Z,46.90
2018-08-23T05:10:06.335Z,46.80
2018-08-23T05:12:34.704Z,46.90
2018-08-23T05:15:03.088Z,47.20
2018-08-23T05:17:31.435Z,48.00
2018-08-23T05:20:00.016Z,47.20
2018-08-23T05:22:28.390Z,47.10
2018-08-23T05:25:00.442Z,47.10
2018-08-23T05:27:28.776Z,47.20
2018-08-23T05:29:57.181Z,47.10
2018-08-23T05:32:25.445Z,47.00
2018-08-23T05:34:53.864Z,47.10
2018-08-23T05:37:22.240Z,46.90
2018-08-23T05:39:51.767Z,46.80
2018-08-23T05:42:32.275Z,46.60
2018-08-23T05:45:00.652Z,46.40
2018-08-23T05:47:28.993Z,46.30
2018-08-23T05:49:57.346Z,46.70
2018-08-23T05:52:25.843Z,46.50
2018-08-23T05:54:54.438Z,46.40
2018-08-23T05:57:22.824Z,46.40
2018-08-23T05:59:51.271Z,46.10
2018-08-23T06:02:19.574Z,46.70
2018-08-23T06:04:47.998Z,46.20
2018-08-23T06:07:16.479Z,46.00
2018-08-23T06:09:44.782Z,46.10
2018-08-23T06:12:13.257Z,46.00
2018-08-23T06:14:41.619Z,46.20
2018-08-23T06:17:09.995Z,46.10
2018-08-23T06:19:38.373Z,46.00
2018-08-23T06:22:06.785Z,46.00
2018-08-23T06:24:35.164Z,46.20
2018-08-23T06:27:03.847Z,46.10
2018-08-23T06:29:33.363Z,46.10
2018-08-23T06:32:05.107Z,45.90
2018-08-23T06:34:40.567Z,45.70
2018-08-23T06:37:09.096Z,45.90
2018-08-23T06:39:38.103Z,45.70
2018-08-23T06:42:06.565Z,45.70
2018-08-23T06:45:07.551Z,45.50
2018-08-23T06:47:36.188Z,45.90
2018-08-23T06:50:04.527Z,45.30
2018-08-23T06:52:38.218Z,45.10
2018-08-23T06:55:07.123Z,45.30
2018-08-23T06:57:46.433Z,45.00
2018-08-23T07:00:20.348Z,45.30
2018-08-23T07:02:49.551Z,45.60
2018-08-23T07:05:18.462Z,44.80
2018-08-23T07:07:46.812Z,44.50
2018-08-23T07:10:15.559Z,44.50
2018-08-23T07:12:44.010Z,44.50
2018-08-23T07:15:12.410Z,44.10
2018-08-23T07:17:41.172Z,43.60
2018-08-23T07:20:11.477Z,43.50
2018-08-23T07:22:39.884Z,43.20
2018-08-23T07:25:14.059Z,43.00
2018-08-23T07:27:42.615Z,42.70
2018-08-23T07:30:16.212Z,42.60
2018-08-23T07:32:46.120Z,42.40
2018-08-23T07:35:17.600Z,42.10
2018-08-23T07:37:48.147Z,41.90
2018-08-23T07:40:20.794Z,41.10
2018-08-23T07:42:50.352Z,41.00
2018-08-23T07:45:18.709Z,41.10
2018-08-23T07:47:49.380Z,40.80
2018-08-23T07:50:17.757Z,40.30
2018-08-23T07:52:50.244Z,40.30
2018-08-23T07:55:18.509Z,40.30
2018-08-23T07:57:47.067Z,40.00
2018-08-23T08:00:29.935Z,40.00
2018-08-23T08:02:58.242Z,39.60
2018-08-23T08:05:29.979Z,39.30
2018-08-23T08:07:58.271Z,40.20
2018-08-23T08:10:31.719Z,38.50
2018-08-23T08:13:00.033Z,38.10
2018-08-23T08:15:28.375Z,37.70
2018-08-23T08:18:20.579Z,37.30
2018-08-23T08:20:55.298Z,37.10
2018-08-23T08:23:23.533Z,36.80
2018-08-23T08:25:51.890Z,36.20
2018-08-23T08:28:20.227Z,35.40
2018-08-23T08:30:53.136Z,34.80
2018-08-23T08:33:22.512Z,33.90
2018-08-23T08:35:55.344Z,32.60
2018-08-23T08:38:23.698Z,31.20
2018-08-23T08:40:52.554Z,29.90
2018-08-23T08:43:20.991Z,28.80
2018-08-23T08:45:53.583Z,27.90
2018-08-23T08:48:27.319Z,27.30
2018-08-23T08:51:12.549Z,27.00
2018-08-23T08:53:40.909Z,26.60
2018-08-23T08:56:09.505Z,26.70
2018-08-23T08:58:38.346Z,26.50
2018-08-23T09:01:06.758Z,26.40
2018-08-23T09:03:36.475Z,25.40
2018-08-23T09:06:08.202Z,24.40
2018-08-23T09:08:37.598Z,23.50
2018-08-23T09:11:06.395Z,23.30
2018-08-23T09:13:40.108Z,23.10
2018-08-23T09:16:11.424Z,22.80
2018-08-23T09:18:41.833Z,22.30
2018-08-23T09:21:10.191Z,22.00
2018-08-23T09:23:38.738Z,21.60
2018-08-23T09:26:07.085Z,21.00
2018-08-23T09:28:35.387Z,20.50
2018-08-23T09:31:03.794Z,20.10
2018-08-23T09:33:32.241Z,19.30
2018-08-23T09:36:00.607Z,18.70
2018-08-23T09:38:28.923Z,18.20
2018-08-23T09:40:57.258Z,18.30
2018-08-23T09:43:25.698Z,17.70
2018-08-23T09:45:54.091Z,17.50
2018-08-23T09:48:22.666Z,17.10
2018-08-23T09:50:51.094Z,16.70
2018-08-23T09:53:23.583Z,16.50
2018-08-23T09:55:52.911Z,16.20
2018-08-23T09:58:26.755Z,15.90
2018-08-23T10:01:00.675Z,15.30
2018-08-23T10:03:35.059Z,15.20
2018-08-23T10:06:09.099Z,15.00
2018-08-23T10:08:42.819Z,15.20
2018-08-23T10:11:20.087Z,15.30
2018-08-23T10:13:53.783Z,15.20
2018-08-23T10:16:27.715Z,15.00
2018-08-23T10:18:57.943Z,15.00
2018-08-23T10:21:31.611Z,14.70
2018-08-23T10:24:06.183Z,14.50
2018-08-23T10:26:34.568Z,14.40
2018-08-23T10:29:02.872Z,14.50
2018-08-23T10:31:31.217Z,14.60
2018-08-23T10:33:59.651Z,14.50
2018-08-23T10:36:29.031Z,14.60
2018-08-23T10:38:57.295Z,14.50
2018-08-23T10:41:25.644Z,14.80
2018-08-23T10:43:54.033Z,15.20
2018-08-23T10:46:22.361Z,15.70
2018-08-23T10:48:50.673Z,16.30
2018-08-23T10:51:19.036Z,16.50
2018-08-23T10:53:47.348Z,16.60
2018-08-23T10:56:15.710Z,16.40
2018-08-23T10:58:44.062Z,16.20
2018-08-23T11:01:12.407Z,15.80
2018-08-23T11:03:40.775Z,15.60
2018-08-23T11:06:09.103Z,15.40
2018-08-23T11:08:38.397Z,15.50
2018-08-23T11:11:12.123Z,15.50
2018-08-23T11:13:47.856Z,15.10
2018-08-23T11:16:21.702Z,14.60
2018-08-23T11:18:55.744Z,13.70
2018-08-23T11:21:24.063Z,13.20
2018-08-23T11:23:52.392Z,13.20
2018-08-23T11:26:23.032Z,13.00
2018-08-23T11:28:51.723Z,12.80
2018-08-23T11:31:25.513Z,12.70
2018-08-23T11:33:54.031Z,12.50
2018-08-23T11:36:22.385Z,12.10
2018-08-23T11:38:51.009Z,11.50
2018-08-23T11:41:19.609Z,11.10
2018-08-23T11:43:48.440Z,11.10
2018-08-23T11:46:18.063Z,10.50
2018-08-23T11:48:47.108Z,10.40
2018-08-23T11:51:16.392Z,9.10
2018-08-23T11:53:45.488Z,9.70
2018-08-23T11:56:13.762Z,9.10
2018-08-23T11:58:42.829Z,9.10
2018-08-23T12:01:12.417Z,9.10
2018-08-23T12:03:41.279Z,9.40
2018-08-23T12:06:10.812Z,9.10
2018-08-23T12:08:39.336Z,9.30
2018-08-23T12:11:07.658Z,9.00
2018-08-23T12:13:36.088Z,8.90
2018-08-23T12:16:07.111Z,9.20
2018-08-23T12:18:36.688Z,8.80
2018-08-23T12:21:05.580Z,8.70
2018-08-23T12:23:34.069Z,8.50
2018-08-23T12:26:02.474Z,8.50
2018-08-23T12:28:36.100Z,8.20
2018-08-23T12:31:04.427Z,8.60
2018-08-23T12:33:32.802Z,8.60
2018-08-23T12:36:01.123Z,8.70
2018-08-23T12:38:34.902Z,9.10
2018-08-23T12:41:08.722Z,9.20
2018-08-23T12:43:44.412Z,9.20
2018-08-23T12:46:12.879Z,9.20
2018-08-23T12:48:41.168Z,9.10
2018-08-23T12:51:09.496Z,9.00
2018-08-23T12:53:37.823Z,8.70
2018-08-23T12:56:06.224Z,8.90
2018-08-23T12:58:35.149Z,9.00
2018-08-23T13:01:03.521Z,8.90
2018-08-23T13:03:31.960Z,9.10
2018-08-23T13:06:00.364Z,9.20
2018-08-23T13:08:28.951Z,9.20
2018-08-23T13:10:57.352Z,9.40
2018-08-23T13:13:25.772Z,9.50
2018-08-23T13:15:54.056Z,9.50
2018-08-23T13:18:22.524Z,9.40
2018-08-23T13:20:50.846Z,9.20
2018-08-23T13:23:19.183Z,9.30
2018-08-23T13:25:53.017Z,9.20
2018-08-23T13:28:21.447Z,9.20
2018-08-23T13:30:50.100Z,9.00
2018-08-23T13:33:18.525Z,9.10
2018-08-23T13:35:46.931Z,8.90
2018-08-23T13:38:15.324Z,8.70
2018-08-23T13:40:43.654Z,8.70
2018-08-23T13:43:11.950Z,8.40
2018-08-23T13:45:40.371Z,9.40
2018-08-23T13:48:08.684Z,8.80
2018-08-23T13:50:37.092Z,8.80
2018-08-23T13:53:05.399Z,8.40
2018-08-23T13:55:33.717Z,8.30
2018-08-23T13:58:02.012Z,8.60
2018-08-23T14:00:35.768Z,8.40
2018-08-23T14:03:04.104Z,8.50
2018-08-23T14:05:32.427Z,8.30
2018-08-23T14:08:00.718Z,8.00
2018-08-23T14:10:29.086Z,8.50
2018-08-23T14:12:57.592Z,8.60
2018-08-23T14:15:31.051Z,8.40
2018-08-23T14:17:59.335Z,8.30
2018-08-23T14:20:27.685Z,8.90
2018-08-23T14:22:55.996Z,9.40
2018-08-23T14:25:25.541Z,9.80
2018-08-23T14:27:54.037Z,10.30
2018-08-23T14:30:22.573Z,10.60
2018-08-23T14:32:51.048Z,11.10
2018-08-23T14:35:19.641Z,11.70
2018-08-23T14:37:47.950Z,11.40
2018-08-23T14:40:16.321Z,12.10
2018-08-23T14:42:44.743Z,12.70
2018-08-23T14:45:17.240Z,13.30
2018-08-23T14:47:51.182Z,14.10
2018-08-23T14:50:19.563Z,14.80
2018-08-23T14:52:47.968Z,15.70
2018-08-23T14:55:20.556Z,16.20
2018-08-23T14:57:48.919Z,16.80
2018-08-23T15:00:17.245Z,17.30
2018-08-23T15:02:45.688Z,17.70
2018-08-23T15:05:14.021Z,18.10
2018-08-23T15:07:42.386Z,18.60
2018-08-23T15:10:10.768Z,19.00
2018-08-23T15:12:39.043Z,19.40
2018-08-23T15:15:08.970Z,19.70
2018-08-23T15:17:37.297Z,19.90
2018-08-23T15:20:06.136Z,20.30
2018-08-23T15:22:34.521Z,20.50
2018-08-23T15:25:02.835Z,20.70
2018-08-23T15:27:33.599Z,21.00
2018-08-23T15:30:03.148Z,21.20
2018-08-23T15:32:31.443Z,21.60
2018-08-23T15:35:00.065Z,22.00
2018-08-23T15:37:28.391Z,22.10
2018-08-23T15:39:56.964Z,22.20
2018-08-23T15:42:25.279Z,22.00
2018-08-23T15:44:53.677Z,22.20
2018-08-23T15:47:22.106Z,22.30
2018-08-23T15:49:50.577Z,22.60
2018-08-23T15:52:19.035Z,22.50
2018-08-23T15:54:47.381Z,22.80
2018-08-23T15:57:15.829Z,22.90
2018-08-23T15:59:44.300Z,22.90
2018-08-23T16:02:12.713Z,23.00
2018-08-23T16:04:41.206Z,23.10
2018-08-23T16:07:09.719Z,23.30
2018-08-23T16:09:38.126Z,23.40
2018-08-23T16:12:06.710Z,23.60
2018-08-23T16:14:35.244Z,23.70
2018-08-23T16:17:09.370Z,23.70
2018-08-23T16:19:43.056Z,23.90
2018-08-23T16:22:11.762Z,24.00
2018-08-23T16:24:40.265Z,24.20
2018-08-23T16:27:08.677Z,24.20
2018-08-23T16:29:37.034Z,24.30
2018-08-23T16:32:06.011Z,24.40
2018-08-23T16:34:34.383Z,24.40
2018-08-23T16:37:02.797Z,24.70
2018-08-23T16:39:31.533Z,24.80
2018-08-23T16:41:59.914Z,25.00
2018-08-23T16:44:28.392Z,25.00
2018-08-23T16:46:56.799Z,25.10
2018-08-23T16:49:25.267Z,25.20
2018-08-23T16:51:53.593Z,25.20
2018-08-23T16:54:22.041Z,25.00
2018-08-23T16:56:50.418Z,25.10
2018-08-23T16:59:18.798Z,25.40
2018-08-23T17:01:47.705Z,25.30
2018-08-23T17:04:16.133Z,25.40
2018-08-23T17:06:46.582Z,25.40
2018-08-23T17:09:16.129Z,25.30
2018-08-23T17:11:44.751Z,25.10
2018-08-23T17:14:14.581Z,25.50
2018-08-23T17:16:48.319Z,25.70
2018-08-23T17:19:16.988Z,25.30
2018-08-23T17:21:45.709Z,25.80
2018-08-23T17:24:15.105Z,25.70
2018-08-23T17:26:44.264Z,25.80
2018-08-23T17:29:13.477Z,25.60
2018-08-23T17:31:42.232Z,26.00
2018-08-23T17:34:10.982Z,25.80
2018-08-23T17:36:39.434Z,26.30
2018-08-23T17:39:08.391Z,26.20
2018-08-23T17:41:36.932Z,26.40
2018-08-23T17:44:05.405Z,26.30
2018-08-23T17:46:33.883Z,26.50
2018-08-23T17:49:03.085Z,26.60
2018-08-23T17:51:31.516Z,26.70
2018-08-23T17:53:59.889Z,26.90
2018-08-23T17:56:28.223Z,26.80
2018-08-23T17:58:56.571Z,26.90
2018-08-23T18:01:24.895Z,27.10
2018-08-23T18:03:54.450Z,27.10
2018-08-23T18:06:22.792Z,27.00
2018-08-23T18:08:51.450Z,27.10
2018-08-23T18:11:19.824Z,27.00
2018-08-23T18:13:48.403Z,27.20
2018-08-23T18:16:22.092Z,27.20
2018-08-23T18:18:50.522Z,26.70
2018-08-23T18:21:18.924Z,27.10
2018-08-23T18:23:47.369Z,27.20
2018-08-23T18:26:15.662Z,27.30
2018-08-23T18:28:44.007Z,27.40
2018-08-23T18:31:12.617Z,27.50
2018-08-23T18:33:40.998Z,27.40
2018-08-23T18:36:09.481Z,27.50
2018-08-23T18:38:37.821Z,27.50
2018-08-23T18:41:06.243Z,27.50
2018-08-23T18:43:34.673Z,27.60
2018-08-23T18:46:03.199Z,27.60
2018-08-23T18:48:31.856Z,27.80
2018-08-23T18:51:00.200Z,29.40
2018-08-23T18:53:28.708Z,31.40
2018-08-23T18:55:57.023Z,32.70
2018-08-23T18:58:25.476Z,33.50
2018-08-23T19:00:53.804Z,34.90
2018-08-23T19:03:22.177Z,35.20
2018-08-23T19:05:50.630Z,38.60
2018-08-23T19:08:18.879Z,37.30
2018-08-23T19:10:47.197Z,37.80
2018-08-23T19:13:15.650Z,37.90
2018-08-23T19:15:49.217Z,39.20
2018-08-23T19:18:17.895Z,40.60
2018-08-23T19:20:46.552Z,43.50
2018-08-23T19:23:15.047Z,43.40
2018-08-23T19:25:43.463Z,42.50
2018-08-23T19:28:11.808Z,42.50
2018-08-23T19:30:40.252Z,42.10
2018-08-23T19:33:08.617Z,42.20
2018-08-23T19:35:37.168Z,41.80
2018-08-23T19:38:05.703Z,41.80
2018-08-23T19:40:34.176Z,41.40
2018-08-23T19:43:02.880Z,41.20
2018-08-23T19:45:36.487Z,41.20
2018-08-23T19:48:04.973Z,41.80
2018-08-23T19:50:33.623Z,41.60
2018-08-23T19:53:01.987Z,41.60
2018-08-23T19:55:30.504Z,41.50
2018-08-23T19:57:58.903Z,41.20
2018-08-23T20:00:27.279Z,41.40
2018-08-23T20:02:55.885Z,41.10
2018-08-23T20:05:24.420Z,41.10
2018-08-23T20:07:52.765Z,41.20
2018-08-23T20:10:21.136Z,41.00
2018-08-23T20:12:49.521Z,40.80
2018-08-23T20:15:23.072Z,40.90
2018-08-23T20:17:51.689Z,42.10
2018-08-23T20:20:19.979Z,42.40
2018-08-23T20:22:48.411Z,42.70
2018-08-23T20:25:16.848Z,42.90
2018-08-23T20:27:45.376Z,42.80
2018-08-23T20:30:13.941Z,42.60
2018-08-23T20:32:42.525Z,42.80
2018-08-23T20:35:10.929Z,42.50
2018-08-23T20:37:39.486Z,42.40
2018-08-23T20:40:08.292Z,42.60
2018-08-23T20:42:36.799Z,42.70
2018-08-23T20:45:05.841Z,42.90
2018-08-23T20:47:34.292Z,42.70
2018-08-23T20:50:02.856Z,42.20
2018-08-23T20:52:31.313Z,42.50
2018-08-23T20:54:59.892Z,42.30
2018-08-23T20:57:28.264Z,42.30
2018-08-23T20:59:56.719Z,41.80
2018-08-23T21:02:25.048Z,41.70
2018-08-23T21:04:53.591Z,41.80
2018-08-23T21:07:21.872Z,41.70
2018-08-23T21:09:50.238Z,41.60
2018-08-23T21:12:18.579Z,41.70
2018-08-23T21:14:47.096Z,41.50
2018-08-23T21:17:15.442Z,41.60
2018-08-23T21:19:43.913Z,41.70
2018-08-23T21:22:12.229Z,42.00
2018-08-23T21:24:40.588Z,42.20
2018-08-23T21:27:08.970Z,42.60
2018-08-23T21:29:37.295Z,43.00
2018-08-23T21:32:05.789Z,43.00
2018-08-23T21:34:34.205Z,43.60
2018-08-23T21:37:03.266Z,43.60
2018-08-23T21:39:31.747Z,44.00
2018-08-23T21:42:00.051Z,43.90
2018-08-23T21:44:28.362Z,44.10
2018-08-23T21:46:56.669Z,44.10
2018-08-23T21:49:25.094Z,44.50
2018-08-23T21:51:53.508Z,44.50
2018-08-23T21:54:21.887Z,44.50
2018-08-23T21:56:50.235Z,44.50
2018-08-23T21:59:18.562Z,44.50
2018-08-23T22:01:46.934Z,44.40
2018-08-23T22:04:15.567Z,44.20
2018-08-23T22:06:43.884Z,44.00
2018-08-23T22:09:12.207Z,44.00
2018-08-23T22:11:40.639Z,44.10
2018-08-23T22:14:09.015Z,44.10
2018-08-23T22:16:37.415Z,44.60
2018-08-23T22:19:06.106Z,44.50
2018-08-23T22:21:34.499Z,45.50
2018-08-23T22:24:02.911Z,45.00
2018-08-23T22:26:31.527Z,45.40
2018-08-23T22:28:59.895Z,45.60
2018-08-23T22:31:28.270Z,45.60
2018-08-23T22:33:56.660Z,45.80
2018-08-23T22:36:25.031Z,45.70
2018-08-23T22:38:53.372Z,45.90
2018-08-23T22:41:21.712Z,45.70
2018-08-23T22:43:50.029Z,45.60
2018-08-23T22:46:18.488Z,45.70
2018-08-23T22:48:46.827Z,46.00
2018-08-23T22:51:15.350Z,46.10
2018-08-23T22:53:43.851Z,46.00
2018-08-23T22:56:12.231Z,46.10
2018-08-23T22:58:40.608Z,46.30
2018-08-23T23:01:09.039Z,46.30
2018-08-23T23:03:42.702Z,46.60
2018-08-23T23:06:11.183Z,46.70
2018-08-23T23:08:39.623Z,47.10
2018-08-23T23:11:08.067Z,47.10
2018-08-23T23:13:36.481Z,47.50
2018-08-23T23:16:04.826Z,47.50
2018-08-23T23:18:33.376Z,47.60
2018-08-23T23:21:01.731Z,47.80
2018-08-23T23:23:30.071Z,47.80
2018-08-23T23:25:58.404Z,48.20
2018-08-23T23:28:26.727Z,48.10
2018-08-23T23:30:55.068Z,48.10
2018-08-23T23:33:23.579Z,48.40
2018-08-23T23:35:51.956Z,48.60
2018-08-23T23:38:20.295Z,48.50
2018-08-23T23:40:54.039Z,48.70
2018-08-23T23:43:22.408Z,49.00
2018-08-23T23:45:50.756Z,49.20
2018-08-23T23:48:19.087Z,49.60
2018-08-23T23:50:47.400Z,49.80
2018-08-23T23:53:15.760Z,50.00
2018-08-23T23:55:44.569Z,50.00
2018-08-23T23:58:12.955Z,50.00
